Time;durP1;ratioP1;P1;durP2;ratioP2;P2;SDS_P1;SDS_P2;PMS_P1;PMS_P2;Temp;Humidity;BMP_temperature;BMP_pressure;BME280_temperature;BME280_humidity;BME280_pressure;Samples;Min_cycle;Max_cycle;Signal;HPM_P1;HPM_P2
2022/12/29 03:48:09;;;;;;;2.65;0.30;;;10.40;54.10;;;;;;5009998;23;88180;-71
2022/12/29 03:50:34;;;;;;;1.30;0.20;;;10.30;58.10;;;;;;4880225;28;87244;-72
2022/12/29 03:53:00;;;;;;;1.60;0.20;;;10.20;59.50;;;;;;4871022;28;87269;-71
2022/12/29 03:55:26;;;;;;;2.25;0.43;;;10.00;60.60;;;;;;4865994;28;87115;-72
2022/12/29 03:57:51;;;;;;;0.95;0.20;;;9.80;61.60;;;;;;4864930;28;86124;-72
2022/12/29 04:00:17;;;;;;;2.30;0.30;;;9.70;61.50;;;;;;4862995;28;87378;-71
2022/12/29 04:02:43;;;;;;;1.20;0.20;;;9.60;64.00;;;;;;4865590;28;87034;-72
2022/12/29 04:05:09;;;;;;;0.85;0.10;;;9.60;60.80;;;;;;4885301;28;87943;-71
2022/12/29 04:07:34;;;;;;;1.10;0.10;;;9.60;58.80;;;;;;4885320;28;86998;-71
2022/12/29 04:10:00;;;;;;;1.20;0.10;;;9.70;56.70;;;;;;4868044;28;87338;-71
2022/12/29 04:12:25;;;;;;;1.02;0.10;;;9.90;52.90;;;;;;4866436;28;87062;-71
2022/12/29 04:14:51;;;;;;;1.38;0.10;;;10.10;52.50;;;;;;4867024;28;87591;-71
2022/12/29 04:17:17;;;;;;;1.50;0.10;;;10.20;52.20;;;;;;4872269;28;87005;-71
2022/12/29 04:19:42;;;;;;;1.20;0.10;;;10.40;54.50;;;;;;4885431;28;86760;-71
2022/12/29 04:22:08;;;;;;;0.98;0.30;;;10.40;50.70;;;;;;4885734;28;86917;-70
2022/12/29 04:24:34;;;;;;;1.33;0.20;;;10.60;50.90;;;;;;4885887;28;87179;-71
2022/12/29 04:26:59;;;;;;;0.70;0.20;;;10.60;50.80;;;;;;4885073;28;87405;-71
2022/12/29 04:29:25;;;;;;;1.00;0.10;;;10.60;50.90;;;;;;4875916;28;89889;-71
2022/12/29 04:31:51;;;;;;;2.22;0.20;;;10.60;52.50;;;;;;4869795;28;88425;-71
2022/12/29 04:34:16;;;;;;;1.05;0.10;;;10.60;51.20;;;;;;4866243;28;87787;-71
2022/12/29 04:36:42;;;;;;;0.60;0.10;;;10.60;50.50;;;;;;4866626;28;87016;-71
2022/12/29 04:39:08;;;;;;;1.00;0.20;;;10.60;52.00;;;;;;4865784;28;86825;-71
2022/12/29 04:41:33;;;;;;;0.93;0.25;;;10.70;52.20;;;;;;4868023;28;87738;-71
2022/12/29 04:43:59;;;;;;;0.50;0.10;;;10.70;50.20;;;;;;4868301;28;87208;-71
2022/12/29 04:46:25;;;;;;;1.00;0.20;;;10.80;50.30;;;;;;4877016;28;87040;-72
2022/12/29 04:48:50;;;;;;;0.77;0.20;;;10.80;50.20;;;;;;4865985;28;87849;-71
2022/12/29 04:51:16;;;;;;;1.58;0.22;;;10.80;50.80;;;;;;4865312;28;87211;-71
2022/12/29 04:53:42;;;;;;;0.68;0.10;;;10.90;51.40;;;;;;4864560;28;88022;-71
2022/12/29 04:56:08;;;;;;;1.13;0.20;;;10.90;50.70;;;;;;4865264;28;86960;-71
2022/12/29 04:58:35;;;;;;;1.42;0.20;;;10.90;50.50;;;;;;4866148;28;87229;-71
2022/12/29 05:01:00;;;;;;;1.65;0.20;;;10.80;50.60;;;;;;4864771;28;87542;-71
2022/12/29 05:03:26;;;;;;;1.80;0.20;;;10.80;52.80;;;;;;4860497;28;87356;-71
2022/12/29 05:05:56;;;;;;;0.70;0.10;;;10.80;51.30;;;;;;4864724;28;87608;-71
2022/12/29 05:08:23;;;;;;;2.40;0.20;;;10.70;51.10;;;;;;4864385;28;87607;-71
2022/12/29 05:10:51;;;;;;;1.23;0.30;;;10.80;51.30;;;;;;4865851;28;86962;-71
2022/12/29 05:13:17;;;;;;;2.38;0.20;;;10.80;52.30;;;;;;4864340;28;87552;-70
2022/12/29 05:15:49;;;;;;;0.88;0.25;;;10.80;49.90;;;;;;4862234;28;87845;-71
2022/12/29 05:18:15;;;;;;;0.90;0.13;;;10.90;50.50;;;;;;4860488;28;88296;-71
2022/12/29 05:20:41;;;;;;;1.55;0.10;;;10.90;50.00;;;;;;4864918;28;87540;-70
2022/12/29 05:23:07;;;;;;;0.73;0.10;;;11.00;49.50;;;;;;4863562;28;86956;-70
2022/12/29 05:25:33;;;;;;;1.80;0.20;;;11.00;50.70;;;;;;4865583;28;87211;-72
2022/12/29 05:27:58;;;;;;;1.30;0.20;;;11.10;49.90;;;;;;4864825;28;87254;-71
2022/12/29 05:30:24;;;;;;;2.78;0.30;;;11.10;51.00;;;;;;4865018;28;88150;-71
2022/12/29 05:32:50;;;;;;;1.48;0.20;;;11.10;49.60;;;;;;4864659;28;87075;-71
2022/12/29 05:35:15;;;;;;;2.17;0.20;;;11.10;52.00;;;;;;4865376;28;86253;-71
2022/12/29 05:37:41;;;;;;;1.42;0.22;;;11.10;49.90;;;;;;4863492;28;87990;-71
2022/12/29 05:40:08;;;;;;;1.10;0.20;;;11.00;52.00;;;;;;4864809;28;87248;-71
2022/12/29 05:42:33;;;;;;;0.65;0.13;;;10.90;51.00;;;;;;4864172;28;88661;-71
2022/12/29 05:44:59;;;;;;;0.98;0.20;;;10.90;51.10;;;;;;4861368;28;88169;-72
2022/12/29 05:47:25;;;;;;;1.00;0.17;;;10.80;50.70;;;;;;4860855;28;87241;-71
2022/12/29 05:49:51;;;;;;;0.60;0.10;;;10.80;51.70;;;;;;4856370;28;87767;-71
2022/12/29 05:52:17;;;;;;;2.08;0.30;;;10.60;51.30;;;;;;4856975;28;87148;-70
2022/12/29 05:54:42;;;;;;;1.48;0.20;;;10.50;51.40;;;;;;4863886;28;86961;-71
2022/12/29 05:57:08;;;;;;;1.02;0.20;;;10.40;50.60;;;;;;4865581;28;87217;-71
2022/12/29 05:59:34;;;;;;;1.38;0.20;;;10.40;52.30;;;;;;4863364;28;87202;-71
2022/12/29 06:02:00;;;;;;;1.02;0.20;;;10.40;52.10;;;;;;4862533;28;87136;-71
2022/12/29 06:04:25;;;;;;;1.23;0.50;;;10.40;51.70;;;;;;4860678;28;86905;-71
2022/12/29 06:06:51;;;;;;;1.10;0.13;;;10.40;50.60;;;;;;4862810;28;88717;-71
2022/12/29 06:09:18;;;;;;;1.52;0.10;;;10.40;51.10;;;;;;4863973;28;86910;-70
2022/12/29 06:11:44;;;;;;;1.10;0.10;;;10.40;50.70;;;;;;4859361;28;86907;-70
2022/12/29 06:14:10;;;;;;;0.60;0.13;;;10.40;50.30;;;;;;4862335;28;87042;-70
2022/12/29 06:16:36;;;;;;;1.40;0.20;;;10.40;51.50;;;;;;4861957;28;87996;-71
2022/12/29 06:19:01;;;;;;;2.20;0.22;;;10.40;52.10;;;;;;4860009;28;86983;-71
2022/12/29 06:21:27;;;;;;;2.55;0.20;;;10.40;51.10;;;;;;4861129;28;87242;-70
2022/12/29 06:23:53;;;;;;;1.08;0.20;;;10.40;50.60;;;;;;4861996;28;86096;-69
2022/12/29 06:26:19;;;;;;;1.25;0.40;;;10.40;51.30;;;;;;4862108;28;87716;-69
2022/12/29 06:28:44;;;;;;;1.63;0.30;;;10.50;51.40;;;;;;4860325;28;87772;-69
2022/12/29 06:31:11;;;;;;;2.25;0.30;;;10.40;50.90;;;;;;4860836;28;88091;-70
2022/12/29 06:33:37;;;;;;;1.10;0.10;;;10.40;51.80;;;;;;4859547;28;87966;-71
2022/12/29 06:36:03;;;;;;;1.90;0.20;;;10.30;51.50;;;;;;4857065;28;87025;-70
2022/12/29 06:38:29;;;;;;;2.25;0.10;;;10.30;51.80;;;;;;4860103;28;86978;-70
2022/12/29 06:40:54;;;;;;;1.77;0.32;;;10.30;51.60;;;;;;4863722;28;86972;-70
2022/12/29 06:43:20;;;;;;;1.30;0.20;;;10.30;52.30;;;;;;4857215;28;87539;-70
2022/12/29 06:45:46;;;;;;;1.00;0.30;;;10.20;52.50;;;;;;4864127;28;87324;-71
2022/12/29 06:48:12;;;;;;;0.77;0.20;;;10.20;52.60;;;;;;4856772;28;86862;-70
2022/12/29 06:50:37;;;;;;;2.22;0.20;;;10.10;52.10;;;;;;4857556;28;87635;-70
2022/12/29 06:53:03;;;;;;;1.38;0.10;;;10.10;52.30;;;;;;4862650;28;87341;-69
2022/12/29 06:55:29;;;;;;;3.08;0.20;;;10.10;52.00;;;;;;4856007;28;88507;-70
2022/12/29 06:57:56;;;;;;;0.88;0.20;;;10.20;50.40;;;;;;4857295;28;87209;-70
2022/12/29 07:00:22;;;;;;;1.98;0.20;;;10.40;51.30;;;;;;4858618;28;86654;-70
2022/12/29 07:02:48;;;;;;;1.27;0.20;;;10.50;51.90;;;;;;4859899;28;87113;-70
2022/12/29 07:05:14;;;;;;;0.65;0.10;;;10.50;52.10;;;;;;4857049;28;86545;-70
2022/12/29 07:07:39;;;;;;;1.77;0.17;;;10.50;50.80;;;;;;4862423;28;88899;-70
2022/12/29 07:10:05;;;;;;;0.77;0.20;;;10.60;50.30;;;;;;4861158;28;87841;-70
2022/12/29 07:12:31;;;;;;;1.98;0.20;;;10.70;50.80;;;;;;4858275;28;86658;-71
2022/12/29 07:14:56;;;;;;;1.83;0.52;;;10.80;49.90;;;;;;4857897;28;87838;-71
2022/12/29 07:17:22;;;;;;;1.42;0.30;;;10.90;52.80;;;;;;4859358;28;87792;-71
2022/12/29 07:19:48;;;;;;;2.83;0.65;;;11.00;49.50;;;;;;4858466;28;88070;-71
2022/12/29 07:22:13;;;;;;;2.42;0.20;;;11.10;52.20;;;;;;4858163;28;87075;-71
2022/12/29 07:24:39;;;;;;;1.20;0.20;;;11.10;51.90;;;;;;4857185;28;87879;-71
2022/12/29 07:27:05;;;;;;;1.58;0.30;;;11.10;51.70;;;;;;4855780;28;86845;-71
2022/12/29 07:29:31;;;;;;;1.70;0.40;;;11.10;54.80;;;;;;4859244;28;87443;-70
2022/12/29 07:31:56;;;;;;;1.77;0.38;;;11.00;55.80;;;;;;4859499;28;86720;-70
2022/12/29 07:34:22;;;;;;;2.42;0.30;;;10.90;55.80;;;;;;4860486;28;87306;-70
2022/12/29 07:36:48;;;;;;;3.58;0.70;;;10.80;57.30;;;;;;4860042;28;86403;-70
2022/12/29 07:39:13;;;;;;;2.03;0.57;;;10.70;57.30;;;;;;4861951;28;87486;-71
2022/12/29 07:41:39;;;;;;;2.03;0.30;;;10.70;54.90;;;;;;4857270;28;87760;-71
2022/12/29 07:44:05;;;;;;;3.38;0.60;;;10.60;54.10;;;;;;4860043;28;87692;-71
2022/12/29 07:46:30;;;;;;;3.22;0.40;;;10.60;54.60;;;;;;4862128;28;87770;-71
2022/12/29 07:48:56;;;;;;;3.13;0.40;;;10.60;54.40;;;;;;4863091;28;87432;-71
2022/12/29 07:51:22;;;;;;;1.20;0.20;;;10.60;54.70;;;;;;4861013;28;86714;-71
2022/12/29 07:53:47;;;;;;;2.17;0.35;;;10.60;53.20;;;;;;4865183;28;88290;-71
2022/12/29 07:56:13;;;;;;;1.45;0.25;;;10.70;52.20;;;;;;4861607;28;88159;-71
2022/12/29 07:58:38;;;;;;;1.40;0.20;;;10.90;51.90;;;;;;4862753;28;87485;-70
2022/12/29 08:01:05;;;;;;;2.38;0.20;;;10.90;51.80;;;;;;4859574;28;86658;-71
2022/12/29 08:03:30;;;;;;;1.05;0.20;;;11.00;51.40;;;;;;4857466;28;88254;-70
2022/12/29 08:05:57;;;;;;;1.25;0.38;;;11.00;51.00;;;;;;4861159;28;87188;-70
2022/12/29 08:08:22;;;;;;;0.90;0.20;;;11.10;50.60;;;;;;4866307;28;87946;-70
2022/12/29 08:10:48;;;;;;;1.50;0.13;;;11.10;51.10;;;;;;4867531;28;86912;-70
2022/12/29 08:13:14;;;;;;;0.73;0.10;;;11.10;50.80;;;;;;4859321;28;87201;-71
2022/12/29 08:15:40;;;;;;;1.70;0.10;;;11.20;50.20;;;;;;4860278;28;86986;-71
2022/12/29 08:18:05;;;;;;;1.20;0.25;;;11.20;50.00;;;;;;4862132;28;87946;-71
2022/12/29 08:20:31;;;;;;;2.35;0.40;;;11.30;49.40;;;;;;4864410;28;86990;-69
2022/12/29 08:22:57;;;;;;;2.83;0.50;;;11.40;49.90;;;;;;4861271;28;88421;-69
2022/12/29 08:25:23;;;;;;;1.40;0.20;;;11.50;49.90;;;;;;4865388;28;87432;-70
2022/12/29 08:27:49;;;;;;;1.58;0.20;;;11.50;50.80;;;;;;4867255;28;87054;-70
2022/12/29 08:30:14;;;;;;;6.22;0.52;;;11.50;50.20;;;;;;4858898;28;86918;-72
2022/12/29 08:32:40;;;;;;;3.35;0.20;;;11.60;50.60;;;;;;4860688;28;89609;-70
2022/12/29 08:35:06;;;;;;;1.40;0.20;;;11.60;49.60;;;;;;4862978;28;87839;-70
2022/12/29 08:37:33;;;;;;;3.53;0.20;;;11.60;50.00;;;;;;4861499;28;86967;-70
2022/12/29 08:39:59;;;;;;;2.92;0.30;;;11.60;50.00;;;;;;4863993;28;87391;-69
2022/12/29 08:42:30;;;;;;;2.15;0.47;;;11.50;51.20;;;;;;4866945;28;87868;-69
2022/12/29 08:44:56;;;;;;;3.10;0.57;;;11.40;53.70;;;;;;4862489;28;87200;-70
2022/12/29 08:47:22;;;;;;;2.35;0.63;;;11.30;53.40;;;;;;4858204;28;87295;-69
2022/12/29 08:49:48;;;;;;;1.90;0.30;;;11.20;53.00;;;;;;4863984;28;86336;-69
2022/12/29 08:52:14;;;;;;;1.88;0.38;;;11.10;51.60;;;;;;4863339;28;87562;-70
2022/12/29 08:54:40;;;;;;;1.20;0.20;;;11.20;50.60;;;;;;4860899;28;86865;-69
2022/12/29 08:57:05;;;;;;;2.05;0.20;;;11.30;51.40;;;;;;4862936;28;88897;-69
2022/12/29 08:59:31;;;;;;;1.02;0.20;;;11.20;50.70;;;;;;4856664;28;87058;-70
2022/12/29 09:01:57;;;;;;;1.13;0.20;;;11.30;51.80;;;;;;4863537;28;87224;-70
2022/12/29 09:04:23;;;;;;;1.50;0.30;;;11.40;50.30;;;;;;4865993;28;87545;-70
2022/12/29 09:06:49;;;;;;;3.00;0.32;;;11.50;50.80;;;;;;4857556;28;87003;-69
2022/12/29 09:09:15;;;;;;;1.70;0.43;;;11.60;49.70;;;;;;4855578;28;86996;-69
2022/12/29 09:11:41;;;;;;;2.28;0.20;;;11.90;49.50;;;;;;4864152;28;87569;-69
2022/12/29 09:14:07;;;;;;;1.90;0.20;;;12.00;47.80;;;;;;4862616;28;87392;-69
2022/12/29 09:16:34;;;;;;;2.08;0.30;;;12.20;49.30;;;;;;4863290;28;86976;-69
2022/12/29 09:19:00;;;;;;;2.40;0.43;;;12.20;49.20;;;;;;4863576;28;87635;-70
2022/12/29 09:21:26;;;;;;;2.85;0.20;;;12.30;48.70;;;;;;4845153;28;89711;-70
2022/12/29 09:23:52;;;;;;;2.55;0.22;;;12.40;48.20;;;;;;4858621;28;88221;-70
2022/12/29 09:26:18;;;;;;;4.85;0.40;;;12.50;50.00;;;;;;4864132;28;87404;-70
2022/12/29 09:28:44;;;;;;;1.27;0.25;;;12.60;48.80;;;;;;4861021;28;87011;-69
2022/12/29 09:31:10;;;;;;;1.15;0.13;;;12.70;47.30;;;;;;4864957;28;87257;-70
2022/12/29 09:33:36;;;;;;;1.42;0.20;;;12.70;47.70;;;;;;4860888;28;87679;-69
2022/12/29 09:36:02;;;;;;;1.52;0.30;;;12.80;46.70;;;;;;4863511;28;86987;-70
2022/12/29 09:38:28;;;;;;;2.72;0.40;;;12.80;49.70;;;;;;4865096;28;86472;-70
2022/12/29 09:41:10;;;;;;;2.80;0.70;;;12.90;47.70;;;;;;4855192;28;88867;-70
2022/12/29 09:43:59;;;;;;;2.50;0.28;;;12.90;48.70;;;;;;4856657;28;87216;-70
2022/12/29 09:46:28;;;;;;;1.60;0.20;;;13.00;46.40;;;;;;4857651;28;87837;-69
2022/12/29 09:49:25;;;;;;;1.88;0.30;;;13.00;49.20;;;;;;4856997;28;87073;-70
2022/12/29 09:51:54;;;;;;;2.15;0.20;;;13.00;48.80;;;;;;4818796;28;87908;-70
2022/12/29 09:54:39;;;;;;;3.78;0.57;;;13.10;45.50;;;;;;4860831;28;86816;-70
2022/12/29 09:57:21;;;;;;;1.95;0.32;;;13.20;47.10;;;;;;4861397;28;87092;-70
2022/12/29 09:59:50;;;;;;;2.28;0.30;;;13.30;46.20;;;;;;4857193;28;86584;-70
2022/12/29 10:02:34;;;;;;;1.52;0.20;;;13.40;46.00;;;;;;4859377;28;88759;-70
2022/12/29 10:05:00;;;;;;;1.25;0.30;;;13.60;46.10;;;;;;4862933;28;87039;-70
2022/12/29 10:07:49;;;;;;;0.95;0.20;;;13.70;47.00;;;;;;4864879;28;86835;-70
2022/12/29 10:10:35;;;;;;;1.00;0.20;;;14.40;46.10;;;;;;4859199;28;86794;-70
2022/12/29 10:13:22;;;;;;;1.20;0.15;;;14.80;45.40;;;;;;4860843;28;88123;-70
2022/12/29 10:16:26;;;;;;;1.05;0.30;;;15.30;43.30;;;;;;4861278;28;87474;-71
2022/12/29 10:19:11;;;;;;;1.25;0.28;;;15.70;43.00;;;;;;4865190;28;87088;-70
2022/12/29 10:21:54;;;;;;;1.33;0.20;;;15.50;43.10;;;;;;4858912;28;86971;-70
2022/12/29 10:24:21;;;;;;;1.55;0.20;;;15.20;43.10;;;;;;4854731;28;88636;-70
2022/12/29 10:26:50;;;;;;;1.75;0.32;;;14.90;43.50;;;;;;4866015;28;87563;-70
2022/12/29 10:29:24;;;;;;;1.98;0.20;;;14.90;45.10;;;;;;4856477;28;86949;-70
2022/12/29 10:32:02;;;;;;;2.05;0.20;;;14.80;45.20;;;;;;4862958;28;86189;-70
2022/12/29 10:34:38;;;;;;;2.25;0.30;;;15.20;42.70;;;;;;4856140;28;87443;-70
2022/12/29 10:37:28;;;;;;;1.85;0.30;;;15.50;43.60;;;;;;4859920;28;87033;-70
2022/12/29 10:39:55;;;;;;;2.50;0.40;;;15.80;42.40;;;;;;4857738;28;87615;-70
2022/12/29 10:42:28;;;;;;;1.42;0.30;;;15.90;43.90;;;;;;4857546;28;88752;-70
2022/12/29 10:44:56;;;;;;;2.35;0.77;;;15.90;42.20;;;;;;4855943;28;87734;-70
2022/12/29 10:47:29;;;;;;;2.83;0.32;;;15.90;42.20;;;;;;4858251;28;86948;-70
2022/12/29 10:49:55;;;;;;;6.07;0.95;;;15.80;44.00;;;;;;4858049;28;87004;-70
2022/12/29 10:52:23;;;;;;;3.83;0.47;;;15.70;44.20;;;;;;4857581;28;88333;-71
2022/12/29 10:55:06;;;;;;;2.10;0.30;;;15.50;42.60;;;;;;4856814;28;87416;-70
2022/12/29 10:57:44;;;;;;;5.97;0.70;;;15.50;43.70;;;;;;4855693;28;87035;-71
2022/12/29 11:00:20;;;;;;;5.20;0.65;;;15.60;47.10;;;;;;4853385;28;87067;-71
2022/12/29 11:03:01;;;;;;;3.17;0.50;;;15.60;45.10;;;;;;4860882;28;86964;-71
2022/12/29 11:05:32;;;;;;;4.05;1.02;;;15.60;43.90;;;;;;4853816;28;90579;-71
2022/12/29 11:08:01;;;;;;;2.22;0.50;;;15.60;43.30;;;;;;4857953;28;87961;-71
2022/12/29 11:10:33;;;;;;;5.07;0.50;;;15.50;42.80;;;;;;4853275;28;87330;-71
2022/12/29 11:13:10;;;;;;;6.97;0.65;;;15.30;42.90;;;;;;4858439;28;86987;-71
2022/12/29 11:15:43;;;;;;;2.00;0.50;;;15.20;45.70;;;;;;4857540;28;87437;-71
2022/12/29 11:18:25;;;;;;;2.85;0.30;;;15.20;43.20;;;;;;4859062;28;87785;-71
2022/12/29 11:21:00;;;;;;;1.30;0.30;;;15.10;43.30;;;;;;4858929;28;87409;-71
2022/12/29 11:23:41;;;;;;;2.95;0.55;;;15.00;43.50;;;;;;4860547;28;86286;-71
2022/12/29 11:26:07;;;;;;;1.05;0.30;;;15.10;45.70;;;;;;4863136;28;87085;-71
2022/12/29 11:28:33;;;;;;;1.70;0.20;;;14.90;42.60;;;;;;4857546;28;87153;-71
2022/12/29 11:31:03;;;;;;;2.17;0.30;;;15.00;43.90;;;;;;4856596;28;88711;-71
2022/12/29 11:33:33;;;;;;;1.10;0.20;;;15.10;43.40;;;;;;4863832;28;87187;-71
2022/12/29 11:36:04;;;;;;;;;;;15.20;43.40;;;;;;4861807;28;87340;-71
2022/12/29 11:38:42;;;;;;;1.25;0.20;;;15.30;42.20;;;;;;4859947;28;87207;-71
2022/12/29 11:41:12;;;;;;;1.05;0.30;;;15.40;43.00;;;;;;4863980;28;86936;-69
2022/12/29 11:43:41;;;;;;;3.30;0.22;;;15.50;42.20;;;;;;4863975;28;87031;-71
2022/12/29 11:46:16;;;;;;;4.15;0.30;;;15.50;43.60;;;;;;4860967;28;87564;-71
2022/12/29 11:48:42;;;;;;;2.72;0.40;;;15.60;42.90;;;;;;4860240;28;89077;-71
2022/12/29 11:51:11;;;;;;;1.63;0.30;;;15.60;45.50;;;;;;4868653;28;87173;-71
2022/12/29 11:53:43;;;;;;;1.00;0.20;;;15.50;43.50;;;;;;4866023;28;87993;-69
2022/12/29 11:56:12;;;;;;;2.17;0.40;;;15.60;43.10;;;;;;4866423;28;88342;-71
2022/12/29 11:58:38;;;;;;;1.70;0.30;;;15.70;44.80;;;;;;4864109;28;88724;-71
2022/12/29 12:01:27;;;;;;;3.20;0.22;;;15.80;43.60;;;;;;4860174;28;86974;-72
2022/12/29 12:04:16;;;;;;;2.17;0.30;;;15.70;44.70;;;;;;4847369;28;87867;-69
2022/12/29 12:06:49;;;;;;;1.55;0.25;;;15.60;42.60;;;;;;4860621;28;86945;-72
2022/12/29 12:09:28;;;;;;;2.55;0.30;;;15.50;42.40;;;;;;4865925;28;87098;-71
2022/12/29 12:11:55;;;;;;;1.25;0.20;;;15.40;44.30;;;;;;4863380;28;86930;-71
2022/12/29 12:14:27;;;;;;;1.52;0.30;;;15.40;43.20;;;;;;4854498;28;86272;-69
2022/12/29 12:16:56;;;;;;;3.45;0.40;;;15.30;44.30;;;;;;4859161;28;87300;-72
2022/12/29 12:19:46;;;;;;;2.50;0.35;;;15.20;44.30;;;;;;4865501;28;88678;-72
2022/12/29 12:22:53;;;;;;;1.42;0.40;;;15.20;43.80;;;;;;4860953;28;87836;-71
2022/12/29 12:25:21;;;;;;;2.35;0.30;;;15.10;43.30;;;;;;4858410;28;87489;-71
2022/12/29 12:28:04;;;;;;;2.13;0.20;;;15.10;44.70;;;;;;4860132;28;87386;-69
2022/12/29 12:30:33;;;;;;;;;;;15.10;44.30;;;;;;4863316;28;87871;-69
2022/12/29 12:33:06;;;;;;;1.38;0.25;;;15.00;43.90;;;;;;4862266;28;86914;-71
2022/12/29 12:35:35;;;;;;;2.47;0.30;;;15.10;43.40;;;;;;4864536;28;86727;-70
2022/12/29 12:38:03;;;;;;;4.10;0.95;;;15.20;44.00;;;;;;4863002;28;87377;-69
2022/12/29 12:40:50;;;;;;;3.53;0.30;;;15.10;43.90;;;;;;4861568;28;87066;-71
2022/12/29 12:43:16;;;;;;;1.63;0.22;;;15.10;44.00;;;;;;4875525;28;87287;-70
2022/12/29 12:46:12;;;;;;;3.35;0.30;;;15.10;43.80;;;;;;4859453;28;87810;-69
2022/12/29 12:48:37;;;;;;;;;;;15.10;44.80;;;;;;4861499;28;90851;-69
2022/12/29 12:51:44;;;;;;;1.05;0.20;;;15.00;43.20;;;;;;4863795;28;87534;-69
2022/12/29 12:54:20;;;;;;;1.17;0.20;;;15.00;43.40;;;;;;4860012;28;87568;-69
2022/12/29 12:57:21;;;;;;;2.97;0.20;;;15.00;43.70;;;;;;4860140;28;86848;-69
2022/12/29 13:00:00;;;;;;;3.40;0.25;;;15.00;43.00;;;;;;4852338;28;87331;-69
2022/12/29 13:03:13;;;;;;;2.05;0.22;;;14.90;42.80;;;;;;4860243;28;87177;-69
2022/12/29 13:06:17;;;;;;;1.23;0.20;;;14.90;44.60;;;;;;4856788;28;87140;-69
2022/12/29 13:09:15;;;;;;;1.40;0.47;;;14.90;42.60;;;;;;4860377;28;86203;-69
2022/12/29 13:12:10;;;;;;;1.40;0.30;;;15.00;43.80;;;;;;4858421;28;87197;-69
2022/12/29 13:14:50;;;;;;;1.98;0.30;;;15.00;43.00;;;;;;4859281;28;87899;-70
2022/12/29 13:17:36;;;;;;;1.05;0.25;;;15.10;43.50;;;;;;4864258;28;87897;-70
2022/12/29 13:20:10;;;;;;;2.13;0.20;;;15.20;43.70;;;;;;4865904;28;87799;-69
2022/12/29 13:22:53;;;;;;;0.75;0.20;;;15.20;44.10;;;;;;4864413;28;87281;-70
2022/12/29 13:25:28;;;;;;;2.83;0.30;;;15.30;45.70;;;;;;4858169;28;88252;-69
2022/12/29 13:28:32;;;;;;;1.38;0.30;;;15.30;49.10;;;;;;4864220;28;87509;-70
2022/12/29 13:31:15;;;;;;;1.77;0.30;;;15.10;50.30;;;;;;4818820;28;87858;-69
2022/12/29 13:33:56;;;;;;;1.30;0.30;;;15.00;52.00;;;;;;4854431;28;87146;-70
2022/12/29 13:36:33;;;;;;;1.75;0.22;;;14.90;52.10;;;;;;4862382;28;87239;-70
2022/12/29 13:39:38;;;;;;;2.25;0.35;;;14.90;52.10;;;;;;4864316;28;86952;-70
2022/12/29 13:42:06;;;;;;;2.45;0.47;;;14.80;53.10;;;;;;4865720;28;86830;-70
2022/12/29 13:44:38;;;;;;;3.72;1.38;;;14.60;53.00;;;;;;4863853;28;88864;-69
2022/12/29 13:47:36;;;;;;;7.68;0.75;;;14.60;52.90;;;;;;4858224;28;87515;-70
2022/12/29 13:50:10;;;;;;;1.20;0.40;;;14.50;53.30;;;;;;4840461;28;87056;-71
2022/12/29 13:52:48;;;;;;;1.52;0.30;;;14.40;52.90;;;;;;4860570;28;87566;-69
2022/12/29 13:55:17;;;;;;;2.53;0.40;;;14.30;53.20;;;;;;4860781;28;87285;-70
2022/12/29 13:57:50;;;;;;;2.22;0.80;;;14.30;53.30;;;;;;4865264;28;88148;-69
2022/12/29 14:00:17;;;;;;;4.47;1.30;;;14.30;53.60;;;;;;4861957;28;87108;-68
2022/12/29 14:02:46;;;;;;;2.60;0.40;;;14.30;53.50;;;;;;4868225;28;86376;-69
2022/12/29 14:05:18;;;;;;;2.45;0.52;;;14.20;53.20;;;;;;4868131;28;87334;-69
2022/12/29 14:07:44;;;;;;;5.25;0.45;;;14.20;53.10;;;;;;4861636;28;87324;-69
2022/12/29 14:10:47;;;;;;;2.60;0.50;;;14.20;53.30;;;;;;4861617;28;87809;-69
2022/12/29 14:13:21;;;;;;;3.67;0.57;;;14.20;53.70;;;;;;4821647;28;86866;-69
2022/12/29 14:15:59;;;;;;;2.00;0.22;;;14.00;54.00;;;;;;4865882;28;87461;-69
2022/12/29 14:18:34;;;;;;;4.38;1.00;;;14.00;54.80;;;;;;4863434;28;87529;-70
2022/12/29 14:21:18;;;;;;;3.08;0.50;;;13.90;54.60;;;;;;4864284;28;86876;-70
2022/12/29 14:23:47;;;;;;;4.22;1.58;;;13.90;55.40;;;;;;4868257;28;86791;-70
2022/12/29 14:26:40;;;;;;;9.88;2.78;;;13.90;55.40;;;;;;4861574;28;87937;-71
2022/12/29 14:29:39;;;;;;;5.57;0.50;;;13.80;56.30;;;;;;4863658;28;87769;-70
2022/12/29 14:32:32;;;;;;;2.58;0.52;;;13.80;55.10;;;;;;4843993;28;86822;-70
2022/12/29 14:35:03;;;;;;;2.70;0.82;;;13.80;55.90;;;;;;4859224;28;87552;-71
2022/12/29 14:37:35;;;;;;;8.40;2.03;;;13.70;55.20;;;;;;4862464;28;88131;-70
2022/12/29 14:40:23;;;;;;;15.75;4.53;;;13.60;55.50;;;;;;4867454;28;87144;-71
2022/12/29 14:43:19;;;;;;;6.43;2.20;;;13.50;56.00;;;;;;4866810;28;87606;-70
2022/12/29 14:45:56;;;;;;;11.02;1.80;;;13.40;55.70;;;;;;4867162;28;87753;-70
2022/12/29 14:48:42;;;;;;;8.18;2.97;;;13.40;56.40;;;;;;4864739;28;86958;-70
2022/12/29 14:51:19;;;;;;;5.03;2.22;;;13.40;56.80;;;;;;4862079;28;87680;-69
2022/12/29 14:53:50;;;;;;;5.10;2.15;;;13.40;56.70;;;;;;4867675;28;86829;-70
2022/12/29 14:56:25;;;;;;;2.55;0.50;;;13.20;57.30;;;;;;4859513;28;86153;-70
2022/12/29 14:58:54;;;;;;;1.40;0.17;;;13.10;57.40;;;;;;4865705;28;87806;-69
2022/12/29 15:01:42;;;;;;;1.98;0.35;;;13.10;54.30;;;;;;4865451;28;87115;-69
2022/12/29 15:04:21;;;;;;;2.33;0.70;;;13.10;57.30;;;;;;4865302;28;88135;-69
2022/12/29 15:06:49;;;;;;;2.90;0.70;;;13.10;61.10;;;;;;4861989;28;86951;-69
2022/12/29 15:09:43;;;;;;;6.50;1.17;;;13.10;61.50;;;;;;4863044;28;87226;-69
2022/12/29 15:12:18;;;;;;;4.15;1.40;;;13.00;63.10;;;;;;4864034;28;87331;-69
2022/12/29 15:14:53;;;;;;;5.95;2.05;;;12.90;63.70;;;;;;4866609;28;86916;-69
2022/12/29 15:17:31;;;;;;;5.63;1.85;;;12.90;63.80;;;;;;4867185;28;86854;-69
2022/12/29 15:19:58;;;;;;;5.72;1.92;;;12.80;64.10;;;;;;4865412;28;87387;-70
2022/12/29 15:22:25;;;;;;;4.97;1.15;;;12.70;64.90;;;;;;4867329;28;87967;-70
2022/12/29 15:24:52;;;;;;;7.97;1.38;;;12.70;64.50;;;;;;4868006;28;87640;-70
2022/12/29 15:27:24;;;;;;;4.20;1.63;;;12.70;64.70;;;;;;4863230;28;87793;-70
2022/12/29 15:29:57;;;;;;;4.68;1.55;;;12.60;63.80;;;;;;4865447;28;88886;-70
2022/12/29 15:32:28;;;;;;;4.57;1.40;;;12.60;64.50;;;;;;4862924;28;88213;-70
2022/12/29 15:34:58;;;;;;;6.07;1.83;;;12.60;64.10;;;;;;4867455;28;87801;-70
2022/12/29 15:37:27;;;;;;;6.15;2.00;;;12.50;65.10;;;;;;4864657;28;86787;-70
2022/12/29 15:39:54;;;;;;;;;;;12.50;64.80;;;;;;4869339;28;87550;-70
2022/12/29 15:42:54;;;;;;;9.50;2.90;;;12.50;65.80;;;;;;4866335;28;87969;-70
2022/12/29 15:45:20;;;;;;;6.97;2.60;;;12.30;64.90;;;;;;4865034;28;87335;-69
2022/12/29 15:47:49;;;;;;;8.98;2.65;;;12.30;66.00;;;;;;4862568;28;86584;-69
2022/12/29 15:50:25;;;;;;;7.60;2.22;;;12.20;66.50;;;;;;4862860;28;87736;-69
2022/12/29 15:52:51;;;;;;;9.98;4.10;;;12.20;66.70;;;;;;4857993;28;87586;-69
2022/12/29 15:55:38;;;;;;;14.27;5.07;;;12.10;67.80;;;;;;4864088;28;88020;-69
2022/12/29 15:58:17;;;;;;;12.88;3.97;;;12.00;67.20;;;;;;4865940;28;86853;-69
2022/12/29 16:00:54;;;;;;;12.65;4.30;;;11.90;67.20;;;;;;4866500;28;87930;-69
2022/12/29 16:03:22;;;;;;;11.35;3.78;;;11.90;67.00;;;;;;4866227;28;87074;-69
2022/12/29 16:06:10;;;;;;;22.88;7.65;;;11.80;66.70;;;;;;4857603;28;86794;-69
2022/12/29 16:08:39;;;;;;;18.98;5.95;;;11.80;67.70;;;;;;4866528;28;86969;-69
2022/12/29 16:11:24;;;;;;;15.23;4.63;;;11.70;68.70;;;;;;4855498;28;87607;-69
2022/12/29 16:13:51;;;;;;;12.98;4.65;;;11.60;68.40;;;;;;4855709;28;87165;-69
2022/12/29 16:16:37;;;;;;;21.23;6.40;;;11.60;69.00;;;;;;4866703;28;87645;-70
2022/12/29 16:19:21;;;;;;;16.60;5.40;;;11.60;69.50;;;;;;4859908;28;86605;-69
2022/12/29 16:21:47;;;;;;;10.52;3.60;;;11.60;69.90;;;;;;4858992;28;87718;-69
2022/12/29 16:24:17;;;;;;;9.35;3.28;;;11.50;69.00;;;;;;4861157;28;87342;-69
2022/12/29 16:26:49;;;;;;;6.78;2.03;;;11.50;69.80;;;;;;4869038;28;87011;-69
2022/12/29 16:29:16;;;;;;;8.40;2.55;;;11.40;69.40;;;;;;4868336;28;87097;-69
2022/12/29 16:31:50;;;;;;;12.63;4.38;;;11.40;69.70;;;;;;4864459;28;87978;-69
2022/12/29 16:34:29;;;;;;;13.43;5.22;;;11.30;70.10;;;;;;4867842;28;87695;-69
2022/12/29 16:37:24;;;;;;;9.57;2.53;;;11.40;70.30;;;;;;4866289;28;87146;-69
2022/12/29 16:39:50;;;;;;;5.90;1.92;;;11.40;69.90;;;;;;4868071;28;86505;-69
2022/12/29 16:42:37;;;;;;;11.13;3.00;;;11.30;69.10;;;;;;4868529;28;87334;-69
2022/12/29 16:45:21;;;;;;;7.15;2.58;;;11.40;69.20;;;;;;4868551;28;87022;-69
2022/12/29 16:48:05;;;;;;;14.73;6.10;;;11.40;69.80;;;;;;4862499;28;87833;-69
2022/12/29 16:50:34;;;;;;;14.38;6.45;;;11.40;70.30;;;;;;4866428;28;88063;-69
2022/12/29 16:53:00;;;;;;;14.70;6.95;;;11.40;70.40;;;;;;4870200;28;87492;-69
2022/12/29 16:55:26;;;;;;;13.55;5.82;;;11.30;69.80;;;;;;4870148;28;87697;-69
2022/12/29 16:57:56;;;;;;;20.23;8.48;;;11.40;69.40;;;;;;4869799;28;88197;-69
2022/12/29 17:00:25;;;;;;;17.55;6.10;;;11.40;70.40;;;;;;4851137;28;87328;-69